Time;durP1;ratioP1;P1;durP2;ratioP2;P2;SDS_P1;SDS_P2;PMS_P1;PMS_P2;Temp;Humidity;BMP_temperature;BMP_pressure;BME280_temperature;BME280_humidity;BME280_pressure;Samples;Min_cycle;Max_cycle;Signal;HPM_P1;HPM_P2
2023/07/01 00:00:57;;;;;;;4.13;2.13;;;16.80;99.90;;;;;;5094943;28;20268;-47
2023/07/01 00:03:23;;;;;;;2.10;1.73;;;16.80;99.90;;;;;;5094970;28;20214;-45
2023/07/01 00:05:49;;;;;;;2.97;1.70;;;16.80;99.90;;;;;;5094846;28;20198;-46
2023/07/01 00:08:15;;;;;;;4.40;2.03;;;16.80;99.90;;;;;;5095150;28;20175;-47
2023/07/01 00:10:41;;;;;;;2.43;1.77;;;16.80;99.90;;;;;;5094593;28;20182;-47
2023/07/01 00:13:06;;;;;;;3.03;1.60;;;16.80;99.90;;;;;;5094467;28;20217;-47
2023/07/01 00:15:33;;;;;;;2.00;1.60;;;16.80;99.90;;;;;;5094453;28;20228;-47
2023/07/01 00:17:58;;;;;;;1.90;1.70;;;16.80;99.90;;;;;;5094405;28;20642;-47
2023/07/01 00:20:26;;;;;;;3.90;1.90;;;16.80;99.90;;;;;;5094661;28;20206;-46
2023/07/01 00:22:52;;;;;;;8.23;2.00;;;16.80;99.90;;;;;;5094194;28;20198;-48
2023/07/01 00:25:18;;;;;;;4.70;1.83;;;16.80;99.90;;;;;;5094460;28;20210;-47
2023/07/01 00:27:44;;;;;;;2.20;1.60;;;16.80;99.90;;;;;;5094538;28;20179;-46
2023/07/01 00:30:10;;;;;;;4.77;1.90;;;16.80;99.90;;;;;;5094454;28;20280;-47
2023/07/01 00:32:36;;;;;;;1.83;1.57;;;16.80;99.90;;;;;;5094137;28;20179;-46
2023/07/01 00:35:01;;;;;;;3.03;1.90;;;16.80;99.90;;;;;;5094437;28;20264;-46
2023/07/01 00:37:27;;;;;;;4.80;1.90;;;16.70;99.90;;;;;;5094388;28;20179;-48
2023/07/01 00:39:53;;;;;;;4.30;1.67;;;16.80;99.90;;;;;;5094692;28;20181;-46
2023/07/01 00:42:19;;;;;;;3.53;1.80;;;16.70;99.90;;;;;;5094267;28;20207;-42
2023/07/01 00:44:44;;;;;;;1.87;1.50;;;16.70;99.90;;;;;;5094232;28;20209;-40
2023/07/01 00:47:10;;;;;;;3.03;1.70;;;16.70;99.90;;;;;;5094609;28;20178;-41
2023/07/01 00:49:37;;;;;;;3.63;1.80;;;16.80;99.90;;;;;;5095552;28;20547;-41
2023/07/01 00:52:04;;;;;;;2.10;1.50;;;16.70;99.90;;;;;;5094069;28;20186;-44
2023/07/01 00:54:30;;;;;;;2.90;1.57;;;16.70;99.90;;;;;;5099936;28;20228;-42
2023/07/01 00:56:56;;;;;;;2.03;1.30;;;16.70;99.90;;;;;;5076710;28;20625;-42
2023/07/01 00:59:21;;;;;;;5.57;2.23;;;16.80;99.90;;;;;;5093958;28;20190;-43
2023/07/01 01:01:52;;;;;;;2.30;1.33;;;16.80;99.90;;;;;;5093750;28;20568;-41
2023/07/01 01:04:31;;;;;;;2.93;1.63;;;16.70;99.90;;;;;;5093786;28;20285;-43
2023/07/01 01:07:14;;;;;;;3.50;1.57;;;16.70;99.90;;;;;;5093670;28;20615;-43
2023/07/01 01:09:48;;;;;;;1.67;1.37;;;16.70;99.90;;;;;;5094474;28;20155;-41
2023/07/01 01:12:14;;;;;;;3.17;1.43;;;16.70;99.90;;;;;;5093725;28;20202;-42
2023/07/01 01:14:42;;;;;;;2.17;1.60;;;16.70;99.90;;;;;;5093970;28;20202;-42
2023/07/01 01:17:13;;;;;;;2.40;1.93;;;16.70;99.90;;;;;;5095561;28;20670;-40
2023/07/01 01:19:51;;;;;;;3.23;1.73;;;16.70;99.90;;;;;;5093752;28;20175;-40
2023/07/01 01:22:46;;;;;;;3.20;1.80;;;16.70;99.90;;;;;;5093729;28;20238;-42
2023/07/01 01:25:18;;;;;;;1.87;1.43;;;16.60;99.90;;;;;;5089176;28;20217;-41
2023/07/01 01:27:44;;;;;;;4.13;1.73;;;16.60;99.90;;;;;;5094056;28;20155;-40
2023/07/01 01:30:10;;;;;;;3.97;1.87;;;16.60;99.90;;;;;;5093466;28;20531;-42
2023/07/01 01:32:36;;;;;;;7.90;1.90;;;16.70;99.90;;;;;;5093592;28;20174;-43
2023/07/01 01:35:02;;;;;;;4.10;1.73;;;16.60;99.90;;;;;;5093221;28;20213;-42
2023/07/01 01:37:42;;;;;;;2.50;1.70;;;16.70;99.90;;;;;;5093593;28;20187;-40
2023/07/01 01:40:40;;;;;;;2.07;1.70;;;16.60;99.90;;;;;;5093313;28;20170;-41
2023/07/01 01:43:14;;;;;;;3.07;1.60;;;16.70;99.90;;;;;;5096192;28;20221;-40
2023/07/01 01:45:41;;;;;;;2.63;1.93;;;16.60;99.90;;;;;;5097616;28;20304;-41
2023/07/01 01:48:08;;;;;;;2.17;1.40;;;16.60;99.90;;;;;;5097410;28;20228;-42
2023/07/01 01:50:38;;;;;;;2.07;1.60;;;16.60;99.90;;;;;;5097292;28;20639;-42
2023/07/01 01:53:05;;;;;;;2.83;1.80;;;16.60;99.90;;;;;;5097252;28;20179;-40
2023/07/01 01:55:32;;;;;;;6.07;1.70;;;16.60;99.90;;;;;;5097449;28;20689;-46
2023/07/01 01:57:59;;;;;;;5.17;2.23;;;16.60;99.90;;;;;;5097056;28;20202;-45
2023/07/01 02:00:25;;;;;;;3.50;1.60;;;16.60;99.90;;;;;;5097430;28;20179;-46
2023/07/01 02:02:51;;;;;;;1.70;1.40;;;16.60;99.90;;;;;;5097284;28;20221;-44
2023/07/01 02:05:16;;;;;;;4.37;1.80;;;16.60;99.90;;;;;;5078853;28;20202;-45
2023/07/01 02:07:42;;;;;;;3.00;1.90;;;16.60;99.90;;;;;;5097271;28;20182;-45
2023/07/01 02:10:08;;;;;;;7.93;2.00;;;16.50;99.90;;;;;;5097127;28;20185;-44
2023/07/01 02:12:34;;;;;;;1.90;1.60;;;16.60;99.90;;;;;;5062049;28;20182;-47
2023/07/01 02:14:59;;;;;;;2.13;1.50;;;16.60;99.90;;;;;;5078535;28;20210;-46
2023/07/01 02:17:25;;;;;;;2.63;1.47;;;16.60;99.90;;;;;;5097701;28;20655;-43
2023/07/01 02:19:51;;;;;;;3.37;1.67;;;16.60;99.90;;;;;;5096943;28;20191;-42
2023/07/01 02:22:17;;;;;;;3.43;1.60;;;16.60;99.90;;;;;;5096617;28;20671;-44
2023/07/01 02:24:43;;;;;;;4.57;1.80;;;16.60;99.90;;;;;;5096556;28;20247;-42
2023/07/01 02:27:08;;;;;;;5.10;1.50;;;16.60;99.90;;;;;;5096610;28;20189;-42
2023/07/01 02:29:34;;;;;;;2.20;1.47;;;16.60;99.90;;;;;;5096881;28;20179;-40
2023/07/01 02:32:00;;;;;;;3.70;1.60;;;16.60;99.90;;;;;;5096535;28;20194;-43
2023/07/01 02:34:27;;;;;;;2.57;1.57;;;16.60;99.90;;;;;;5096359;28;20203;-39
2023/07/01 02:36:53;;;;;;;4.27;1.50;;;16.60;99.90;;;;;;5096409;28;20265;-42
2023/07/01 02:39:19;;;;;;;2.37;1.60;;;16.60;99.90;;;;;;5096281;28;20530;-42
2023/07/01 02:41:44;;;;;;;2.50;1.47;;;16.60;99.90;;;;;;5096228;28;20210;-43
2023/07/01 02:44:11;;;;;;;4.20;1.80;;;16.60;99.90;;;;;;5096437;28;20562;-41
2023/07/01 02:46:37;;;;;;;3.83;2.27;;;16.60;99.90;;;;;;5096213;28;20254;-42
2023/07/01 02:49:02;;;;;;;2.60;1.53;;;16.60;99.90;;;;;;5096353;28;20266;-40
2023/07/01 02:51:28;;;;;;;4.20;1.90;;;16.60;99.90;;;;;;5096729;28;20231;-44
2023/07/01 02:53:54;;;;;;;2.47;1.73;;;16.60;99.90;;;;;;5095757;28;20186;-43
2023/07/01 02:56:19;;;;;;;3.07;1.67;;;16.60;99.90;;;;;;5095966;28;20568;-44
2023/07/01 02:58:45;;;;;;;5.17;2.03;;;16.60;99.90;;;;;;5096066;28;20300;-42
2023/07/01 03:01:10;;;;;;;4.63;1.80;;;16.50;99.90;;;;;;5096238;28;20183;-44
2023/07/01 03:03:36;;;;;;;1.87;1.40;;;16.60;99.90;;;;;;5095923;28;20182;-43
2023/07/01 03:06:02;;;;;;;3.17;1.70;;;16.50;99.90;;;;;;5096112;28;20203;-43
2023/07/01 03:08:27;;;;;;;2.60;1.70;;;16.50;99.90;;;;;;5096173;28;20604;-43
2023/07/01 03:10:53;;;;;;;4.33;1.70;;;16.50;99.90;;;;;;5095917;28;20183;-43
2023/07/01 03:13:18;;;;;;;2.77;1.77;;;16.50;99.90;;;;;;5096104;28;20179;-43
2023/07/01 03:15:45;;;;;;;7.60;1.90;;;16.50;99.90;;;;;;5096432;28;20565;-43
2023/07/01 03:18:10;;;;;;;1.73;1.40;;;16.50;99.90;;;;;;5098081;28;20270;-42
2023/07/01 03:20:36;;;;;;;3.73;1.93;;;16.50;99.90;;;;;;5096445;28;20218;-43
2023/07/01 03:23:01;;;;;;;3.00;1.70;;;16.50;99.90;;;;;;5095589;28;20199;-44
2023/07/01 03:25:27;;;;;;;3.90;1.83;;;16.50;99.90;;;;;;5095662;28;20195;-40
2023/07/01 03:27:53;;;;;;;2.50;1.47;;;16.50;99.90;;;;;;5095785;28;20175;-42
2023/07/01 03:30:27;;;;;;;3.77;2.00;;;16.50;99.90;;;;;;5095550;28;20251;-40
2023/07/01 03:32:53;;;;;;;3.13;1.83;;;16.50;99.90;;;;;;5095649;28;20533;-42
2023/07/01 03:35:18;;;;;;;5.47;1.90;;;16.50;99.90;;;;;;5095342;28;20199;-43
2023/07/01 03:37:45;;;;;;;5.40;1.93;;;16.50;99.90;;;;;;5095273;28;20215;-43
2023/07/01 03:40:11;;;;;;;2.47;1.80;;;16.60;99.90;;;;;;5095195;28;20181;-41
2023/07/01 03:42:40;;;;;;;3.73;2.03;;;16.60;99.90;;;;;;5095165;28;20228;-42
2023/07/01 03:45:08;;;;;;;3.43;1.80;;;16.60;99.90;;;;;;5095081;28;20269;-43
2023/07/01 03:47:38;;;;;;;2.63;1.83;;;16.60;99.90;;;;;;5095438;28;20631;-43
2023/07/01 03:50:07;;;;;;;3.60;2.13;;;16.60;99.90;;;;;;5095059;28;20183;-41
2023/07/01 03:52:33;;;;;;;4.90;2.17;;;16.70;99.90;;;;;;5095265;28;20195;-43
2023/07/01 03:54:59;;;;;;;2.87;2.07;;;16.70;99.90;;;;;;5094860;28;20208;-41
2023/07/01 03:57:24;;;;;;;2.93;1.97;;;16.70;99.90;;;;;;5094665;28;20209;-42
2023/07/01 03:59:50;;;;;;;5.70;1.73;;;16.70;99.90;;;;;;5095386;28;20214;-43
2023/07/01 04:02:15;;;;;;;3.57;1.83;;;16.80;99.90;;;;;;5094994;28;20206;-42
2023/07/01 04:04:42;;;;;;;2.90;2.33;;;16.70;99.90;;;;;;5076648;28;20199;-41
2023/07/01 04:07:07;;;;;;;6.30;1.87;;;16.80;99.90;;;;;;5094605;28;20265;-44
2023/07/01 04:09:33;;;;;;;4.43;2.10;;;16.80;99.90;;;;;;5094965;28;20224;-41
2023/07/01 04:11:59;;;;;;;3.83;1.87;;;16.80;99.90;;;;;;5094679;28;20182;-44
2023/07/01 04:14:25;;;;;;;3.17;1.80;;;16.80;99.90;;;;;;5094683;28;20214;-43
2023/07/01 04:16:51;;;;;;;3.07;1.60;;;16.80;99.90;;;;;;5077558;28;20316;-42
2023/07/01 04:19:16;;;;;;;3.23;1.90;;;16.80;99.90;;;;;;5094488;28;20523;-41
2023/07/01 04:21:42;;;;;;;4.53;2.10;;;16.90;99.90;;;;;;5094319;28;20730;-42
2023/07/01 04:24:08;;;;;;;4.07;1.90;;;16.90;99.90;;;;;;5095075;28;20209;-40
2023/07/01 04:26:34;;;;;;;5.43;2.00;;;16.90;99.90;;;;;;5094595;28;20175;-41
2023/07/01 04:29:00;;;;;;;4.60;1.70;;;16.90;99.90;;;;;;5094297;28;20178;-41
2023/07/01 04:31:26;;;;;;;4.37;1.80;;;17.00;99.90;;;;;;5094455;28;20185;-41
2023/07/01 04:33:52;;;;;;;3.13;1.80;;;17.00;99.90;;;;;;5075921;28;20187;-43
2023/07/01 04:36:17;;;;;;;2.70;1.90;;;17.10;99.90;;;;;;5094370;28;20527;-43
2023/07/01 04:38:43;;;;;;;3.93;1.73;;;17.10;99.90;;;;;;5093986;28;20274;-39
2023/07/01 04:41:08;;;;;;;4.50;1.70;;;17.20;99.90;;;;;;5093959;28;20243;-39
2023/07/01 04:43:35;;;;;;;2.77;1.47;;;17.20;99.90;;;;;;5094075;28;20287;-42
2023/07/01 04:46:00;;;;;;;3.13;1.70;;;17.20;99.90;;;;;;5093952;28;20731;-42
2023/07/01 04:48:26;;;;;;;4.87;2.17;;;17.20;99.90;;;;;;5093963;28;20183;-41
2023/07/01 04:50:52;;;;;;;7.10;2.10;;;17.30;99.90;;;;;;5094165;28;20179;-41
2023/07/01 04:53:18;;;;;;;5.67;1.70;;;17.30;99.90;;;;;;5093894;28;20203;-42
2023/07/01 04:55:44;;;;;;;5.47;1.60;;;17.30;99.90;;;;;;5093751;28;20203;-43
2023/07/01 04:58:09;;;;;;;7.10;1.50;;;17.30;99.90;;;;;;5093736;28;20205;-40
2023/07/01 05:00:37;;;;;;;4.67;1.60;;;17.40;99.90;;;;;;5094007;28;20606;-41
2023/07/01 05:03:05;;;;;;;4.10;1.80;;;17.40;99.90;;;;;;5093930;28;20214;-39
2023/07/01 05:05:31;;;;;;;3.43;1.57;;;17.40;99.90;;;;;;5093741;28;20195;-43
2023/07/01 05:07:57;;;;;;;7.13;1.90;;;17.40;99.90;;;;;;5093899;28;20270;-40
2023/07/01 05:10:25;;;;;;;1.60;1.50;;;17.40;99.90;;;;;;5093734;28;20651;-41
2023/07/01 05:12:51;;;;;;;2.87;1.60;;;17.50;99.90;;;;;;5093572;28;20261;-42
2023/07/01 05:15:16;;;;;;;1.80;1.47;;;17.60;99.90;;;;;;5093538;28;20671;-41
2023/07/01 05:17:43;;;;;;;5.30;1.80;;;17.60;99.90;;;;;;5094409;28;20183;-41
2023/07/01 05:20:09;;;;;;;4.70;2.20;;;17.60;99.90;;;;;;5094081;28;20539;-42
2023/07/01 05:22:35;;;;;;;2.70;1.60;;;17.70;99.90;;;;;;5093383;28;20674;-40
2023/07/01 05:25:03;;;;;;;3.07;1.57;;;17.70;99.90;;;;;;5093395;28;20252;-41
2023/07/01 05:27:29;;;;;;;4.47;1.60;;;17.70;99.90;;;;;;5093657;28;20544;-43
2023/07/01 05:29:55;;;;;;;3.87;1.40;;;17.70;99.90;;;;;;5093655;28;20187;-42
2023/07/01 05:32:21;;;;;;;2.33;1.47;;;17.70;99.90;;;;;;5093570;28;20191;-41
2023/07/01 05:34:46;;;;;;;3.47;1.53;;;17.60;99.90;;;;;;5093259;28;20210;-43
2023/07/01 05:37:12;;;;;;;2.07;1.60;;;17.60;99.90;;;;;;5093315;28;20187;-45
2023/07/01 05:39:38;;;;;;;3.20;1.60;;;17.50;99.90;;;;;;5093206;28;20186;-42
2023/07/01 05:42:04;;;;;;;6.80;1.70;;;17.50;99.90;;;;;;5093153;28;20210;-43
2023/07/01 05:44:29;;;;;;;4.30;1.70;;;17.40;99.90;;;;;;5093699;28;20225;-42
2023/07/01 05:46:55;;;;;;;2.87;1.37;;;17.30;99.90;;;;;;5093194;28;20687;-42
2023/07/01 05:49:21;;;;;;;3.40;1.73;;;17.30;99.90;;;;;;5093182;28;20239;-41
2023/07/01 05:51:47;;;;;;;4.13;1.60;;;17.20;99.90;;;;;;5093079;28;20282;-43
2023/07/01 05:54:12;;;;;;;2.43;1.50;;;17.20;99.90;;;;;;5093549;28;20202;-42
2023/07/01 05:56:38;;;;;;;5.07;1.40;;;17.00;99.90;;;;;;5093050;28;20191;-43
2023/07/01 05:59:03;;;;;;;4.07;1.73;;;17.00;99.90;;;;;;5093098;28;20171;-41
2023/07/01 06:01:29;;;;;;;2.57;1.60;;;16.90;99.90;;;;;;5093204;28;20207;-42
2023/07/01 06:03:55;;;;;;;2.07;1.60;;;16.90;99.90;;;;;;5092981;28;20549;-42
2023/07/01 06:06:21;;;;;;;4.43;1.70;;;16.90;99.90;;;;;;5093042;28;20187;-42
2023/07/01 06:08:47;;;;;;;3.03;1.70;;;16.90;99.90;;;;;;5093102;28;20171;-42
2023/07/01 06:11:14;;;;;;;4.10;2.00;;;16.80;99.90;;;;;;5093275;28;20217;-44
2023/07/01 06:13:47;;;;;;;6.50;1.87;;;16.80;99.90;;;;;;5092957;28;20241;-43
2023/07/01 06:16:15;;;;;;;4.27;1.70;;;16.80;99.90;;;;;;5093698;28;20230;-46
2023/07/01 06:18:41;;;;;;;2.77;1.67;;;16.80;99.90;;;;;;5093170;28;20175;-49
2023/07/01 06:21:08;;;;;;;5.23;2.13;;;16.90;99.90;;;;;;5093357;28;20167;-49
2023/07/01 06:23:34;;;;;;;3.73;1.90;;;16.90;99.90;;;;;;5093109;28;20195;-48
2023/07/01 06:26:00;;;;;;;4.60;2.37;;;16.90;99.90;;;;;;5093059;28;20268;-49
2023/07/01 06:28:26;;;;;;;4.03;1.80;;;17.00;99.90;;;;;;5093551;28;20257;-49
2023/07/01 06:30:51;;;;;;;4.10;1.60;;;16.90;99.90;;;;;;5096473;28;20177;-48
2023/07/01 06:33:17;;;;;;;4.40;1.90;;;17.00;99.90;;;;;;5096837;28;20182;-47
2023/07/01 06:35:43;;;;;;;3.07;1.80;;;17.00;99.90;;;;;;5096416;28;20593;-49
2023/07/01 06:38:09;;;;;;;5.30;1.50;;;17.00;99.90;;;;;;5096696;28;20186;-49
2023/07/01 06:40:35;;;;;;;4.87;1.87;;;17.00;99.90;;;;;;5096322;28;20190;-49
2023/07/01 06:43:02;;;;;;;3.50;1.57;;;17.00;99.90;;;;;;5096512;28;20207;-49
2023/07/01 06:45:28;;;;;;;1.93;1.50;;;17.10;99.90;;;;;;5096463;28;20199;-49
2023/07/01 06:47:54;;;;;;;2.73;1.60;;;17.20;99.90;;;;;;5096264;28;20177;-49
2023/07/01 06:50:20;;;;;;;3.10;2.00;;;17.20;99.90;;;;;;5096438;28;20179;-50
2023/07/01 06:52:45;;;;;;;2.53;1.60;;;17.30;99.90;;;;;;5096175;28;20252;-48
2023/07/01 06:55:13;;;;;;;3.37;1.50;;;17.30;99.90;;;;;;5096230;28;20295;-50
2023/07/01 06:57:39;;;;;;;2.27;1.43;;;17.40;99.90;;;;;;5096065;28;20677;-48
2023/07/01 07:00:06;;;;;;;4.87;1.50;;;17.40;99.90;;;;;;5095943;28;20654;-50
2023/07/01 07:02:31;;;;;;;2.73;1.53;;;17.40;99.90;;;;;;5095818;28;20203;-49
2023/07/01 07:04:57;;;;;;;3.37;1.30;;;17.40;99.90;;;;;;5096381;28;20244;-48
2023/07/01 07:07:23;;;;;;;3.33;1.20;;;17.50;99.90;;;;;;5096171;28;20202;-49
2023/07/01 07:09:48;;;;;;;2.40;1.30;;;17.50;99.90;;;;;;5095784;28;20167;-48
2023/07/01 07:12:14;;;;;;;3.80;1.33;;;17.50;99.90;;;;;;5096346;28;20622;-49
2023/07/01 07:14:39;;;;;;;3.40;1.60;;;17.50;99.90;;;;;;5095690;28;20199;-48
2023/07/01 07:17:05;;;;;;;1.60;1.50;;;17.60;99.90;;;;;;5095668;28;20183;-48
2023/07/01 07:19:31;;;;;;;2.00;1.47;;;17.60;99.90;;;;;;5096028;28;20167;-48
2023/07/01 07:21:56;;;;;;;1.87;1.10;;;17.70;99.90;;;;;;5095801;28;20551;-49
2023/07/01 07:24:22;;;;;;;1.00;0.90;;;17.60;99.90;;;;;;5095828;28;20190;-46
2023/07/01 07:26:56;;;;;;;7.63;1.07;;;17.70;99.90;;;;;;5095946;28;20167;-48
2023/07/01 07:29:22;;;;;;;2.10;1.17;;;17.60;99.90;;;;;;5095703;28;20182;-48
2023/07/01 07:31:48;;;;;;;3.13;1.33;;;17.70;99.90;;;;;;5095953;28;20187;-48
2023/07/01 07:34:14;;;;;;;2.50;1.20;;;17.70;99.90;;;;;;5095596;28;20568;-47
2023/07/01 07:36:39;;;;;;;3.57;1.00;;;17.70;99.90;;;;;;5095289;28;20579;-48
2023/07/01 07:39:05;;;;;;;2.23;0.90;;;17.70;99.90;;;;;;5095199;28;20655;-47
2023/07/01 07:41:30;;;;;;;2.33;1.30;;;17.80;99.90;;;;;;5094315;28;20659;-47
2023/07/01 07:43:56;;;;;;;3.10;0.77;;;17.80;99.90;;;;;;5095095;28;20197;-47
2023/07/01 07:46:21;;;;;;;2.97;0.90;;;17.90;99.90;;;;;;5095310;28;20186;-47
2023/07/01 07:48:47;;;;;;;1.20;0.70;;;17.90;99.90;;;;;;5095910;28;20677;-42
2023/07/01 07:51:12;;;;;;;2.20;0.90;;;18.00;99.90;;;;;;5095007;28;20163;-44
2023/07/01 07:53:39;;;;;;;1.00;0.80;;;18.20;99.90;;;;;;5095194;28;20655;-44
2023/07/01 07:56:04;;;;;;;1.43;0.80;;;18.30;99.90;;;;;;5094668;28;20772;-43
2023/07/01 07:58:30;;;;;;;1.37;0.97;;;18.40;99.90;;;;;;5095182;28;20163;-44
2023/07/01 08:00:55;;;;;;;0.97;0.70;;;18.50;99.90;;;;;;5094841;28;20636;-47
2023/07/01 08:03:22;;;;;;;2.10;0.70;;;18.50;99.90;;;;;;5094697;28;20687;-48
2023/07/01 08:05:50;;;;;;;3.90;1.10;;;18.50;99.90;;;;;;5094732;28;20199;-48
2023/07/01 08:08:16;;;;;;;1.00;0.60;;;18.50;99.90;;;;;;5094874;28;20652;-47
2023/07/01 08:10:45;;;;;;;0.80;0.80;;;18.50;99.90;;;;;;5094541;28;20167;-47
2023/07/01 08:13:14;;;;;;;1.57;0.73;;;18.50;99.90;;;;;;5094839;28;20179;-48
2023/07/01 08:15:41;;;;;;;0.90;0.60;;;18.50;99.90;;;;;;5094715;28;20251;-47
2023/07/01 08:18:08;;;;;;;1.97;0.90;;;18.40;99.90;;;;;;5094478;28;20175;-46
2023/07/01 08:20:33;;;;;;;1.17;0.70;;;18.50;99.90;;;;;;5094454;28;20666;-47
2023/07/01 08:22:59;;;;;;;1.47;0.77;;;18.50;99.90;;;;;;5094282;28;20203;-48
2023/07/01 08:25:24;;;;;;;1.17;0.80;;;18.50;99.90;;;;;;5094283;28;20230;-48
2023/07/01 08:27:50;;;;;;;2.90;0.70;;;18.50;99.90;;;;;;5094368;28;20236;-47
2023/07/01 08:30:16;;;;;;;0.60;0.60;;;18.50;99.90;;;;;;5094805;28;20225;-49
2023/07/01 08:32:42;;;;;;;1.63;0.63;;;18.50;99.90;;;;;;5094306;28;20187;-48
2023/07/01 08:35:08;;;;;;;1.97;0.63;;;18.40;99.90;;;;;;5094195;28;20195;-48
2023/07/01 08:37:34;;;;;;;3.50;1.33;;;18.40;99.90;;;;;;5094372;28;20200;-48
2023/07/01 08:40:00;;;;;;;2.27;0.60;;;18.40;99.90;;;;;;5094324;28;20175;-48
2023/07/01 08:42:42;;;;;;;0.60;0.60;;;18.50;99.90;;;;;;5094282;28;20210;-42
2023/07/01 08:45:08;;;;;;;1.70;0.70;;;18.50;99.90;;;;;;5094381;28;20556;-49
2023/07/01 08:47:35;;;;;;;0.87;0.60;;;18.70;99.90;;;;;;5094202;28;20179;-47
2023/07/01 08:50:05;;;;;;;0.73;0.50;;;18.70;99.90;;;;;;5095961;28;20187;-47
2023/07/01 08:52:37;;;;;;;0.50;0.50;;;18.70;99.90;;;;;;5093711;28;20167;-44
2023/07/01 08:55:02;;;;;;;0.50;0.50;;;18.70;99.90;;;;;;5093896;28;20647;-44
2023/07/01 08:57:28;;;;;;;0.77;0.50;;;18.70;99.90;;;;;;5093651;28;20196;-46
2023/07/01 08:59:53;;;;;;;2.17;0.50;;;18.60;99.90;;;;;;5093762;28;20171;-44
2023/07/01 09:02:22;;;;;;;0.40;0.40;;;18.60;99.90;;;;;;5093630;28;20199;-45
2023/07/01 09:04:48;;;;;;;0.77;0.50;;;18.60;99.90;;;;;;5093823;28;20200;-46
2023/07/01 09:07:13;;;;;;;0.80;0.50;;;18.60;99.90;;;;;;5093887;28;20600;-46
2023/07/01 09:09:39;;;;;;;2.00;0.50;;;18.50;99.90;;;;;;5093642;28;20563;-46
2023/07/01 09:12:05;;;;;;;0.57;0.47;;;18.50;99.90;;;;;;5093595;28;20266;-45
2023/07/01 09:15:03;;;;;;;1.90;0.40;;;18.50;99.90;;;;;;5093445;28;20720;-46
2023/07/01 09:17:34;;;;;;;2.63;0.40;;;18.40;99.90;;;;;;5093753;28;20183;-46
2023/07/01 09:20:05;;;;;;;0.40;0.40;;;18.50;99.90;;;;;;5093504;28;20175;-46
2023/07/01 09:22:32;;;;;;;1.00;0.50;;;18.50;99.90;;;;;;5093660;28;20191;-46
2023/07/01 09:24:57;;;;;;;0.30;0.30;;;18.50;99.90;;;;;;5093459;28;20592;-47
2023/07/01 09:27:38;;;;;;;0.40;0.40;;;18.60;99.90;;;;;;5093465;28;20179;-46
2023/07/01 09:30:21;;;;;;;0.53;0.37;;;18.60;99.90;;;;;;5093688;28;20232;-46
2023/07/01 09:32:47;;;;;;;1.83;0.40;;;18.70;99.90;;;;;;5093677;28;20174;-45
2023/07/01 09:35:13;;;;;;;0.37;0.37;;;18.80;99.90;;;;;;5093588;28;20207;-45
2023/07/01 09:37:39;;;;;;;0.30;0.30;;;18.90;99.90;;;;;;5093558;28;20223;-45
2023/07/01 09:40:25;;;;;;;0.50;0.50;;;19.00;99.90;;;;;;5093245;28;20186;-45
2023/07/01 09:42:52;;;;;;;1.17;0.33;;;19.00;99.90;;;;;;5093540;28;20230;-46
2023/07/01 09:45:18;;;;;;;0.63;0.40;;;19.10;99.90;;;;;;5093311;28;20719;-46
2023/07/01 09:47:43;;;;;;;0.43;0.40;;;19.10;99.90;;;;;;5093202;28;20234;-44
2023/07/01 09:50:23;;;;;;;0.57;0.30;;;19.10;99.90;;;;;;5094201;28;20167;-47
2023/07/01 09:52:51;;;;;;;2.47;0.30;;;19.10;99.90;;;;;;5093470;28;20175;-46
2023/07/01 09:55:17;;;;;;;0.30;0.30;;;19.20;99.90;;;;;;5092998;28;20191;-47
2023/07/01 09:57:43;;;;;;;0.30;0.30;;;19.20;99.90;;;;;;5092908;28;20273;-46
2023/07/01 10:00:26;;;;;;;3.07;0.33;;;19.20;99.90;;;;;;5093356;28;20171;-46
2023/07/01 10:02:53;;;;;;;0.57;0.47;;;19.20;99.90;;;;;;5093026;28;20230;-46
2023/07/01 10:05:20;;;;;;;1.30;0.20;;;19.20;99.90;;;;;;5078518;28;20683;-47
2023/07/01 10:07:45;;;;;;;0.50;0.33;;;19.30;99.90;;;;;;5097288;28;20147;-47
2023/07/01 10:10:18;;;;;;;0.20;0.20;;;19.30;99.90;;;;;;5097179;28;20575;-48
2023/07/01 10:12:45;;;;;;;0.30;0.30;;;19.40;99.90;;;;;;5094165;28;20210;-47
2023/07/01 10:15:13;;;;;;;14.67;10.10;;;19.60;99.90;;;;;;5092640;28;20215;-48
2023/07/01 10:17:46;;;;;;;0.57;0.53;;;19.70;99.90;;;;;;5095607;28;20187;-49
2023/07/01 10:20:28;;;;;;;0.57;0.40;;;19.80;99.90;;;;;;5094902;28;20182;-48
2023/07/01 10:22:57;;;;;;;0.60;0.30;;;19.90;99.90;;;;;;5096077;28;20600;-45
2023/07/01 10:25:33;;;;;;;0.40;0.40;;;19.90;99.90;;;;;;5089632;28;20556;-48
2023/07/01 10:28:07;;;;;;;0.40;0.40;;;19.80;99.90;;;;;;5095098;28;20185;-48
2023/07/01 10:30:42;;;;;;;0.50;0.40;;;19.80;99.90;;;;;;5097406;28;20166;-47
2023/07/01 10:33:33;;;;;;;0.40;0.40;;;19.80;99.90;;;;;;5096682;28;20182;-48
2023/07/01 10:36:03;;;;;;;1.90;0.73;;;19.80;99.90;;;;;;5096421;28;20663;-47
2023/07/01 10:38:32;;;;;;;0.40;0.40;;;19.80;99.90;;;;;;5096365;28;20171;-48
2023/07/01 10:40:58;;;;;;;0.40;0.40;;;19.70;99.90;;;;;;5096345;28;20309;-47
2023/07/01 10:43:30;;;;;;;1.97;0.43;;;19.70;99.90;;;;;;5096493;28;20201;-49
2023/07/01 10:46:23;;;;;;;0.50;0.50;;;19.80;99.90;;;;;;5096435;28;20190;-47
2023/07/01 10:49:05;;;;;;;0.70;0.60;;;19.90;99.90;;;;;;5096652;28;20171;-48
2023/07/01 10:51:51;;;;;;;0.33;0.33;;;20.00;99.90;;;;;;5096178;28;20174;-47
2023/07/01 10:54:35;;;;;;;0.83;0.43;;;20.00;99.90;;;;;;5081679;28;20707;-48
2023/07/01 10:57:14;;;;;;;0.80;0.57;;;20.10;99.90;;;;;;5096724;28;20553;-49
2023/07/01 10:59:41;;;;;;;1.23;0.40;;;20.10;99.90;;;;;;5096453;28;20242;-49
2023/07/01 11:02:09;;;;;;;0.83;0.70;;;20.20;99.90;;;;;;5095906;28;20252;-49
2023/07/01 11:04:55;;;;;;;0.40;0.40;;;20.20;99.90;;;;;;5095879;28;20206;-49
2023/07/01 11:07:25;;;;;;;1.33;0.53;;;20.20;99.90;;;;;;5096105;28;20179;-48
2023/07/01 11:09:52;;;;;;;1.03;0.47;;;20.20;99.90;;;;;;5096031;28;20201;-48
2023/07/01 11:12:18;;;;;;;1.33;0.50;;;20.30;99.90;;;;;;5095643;28;20186;-49
2023/07/01 11:14:44;;;;;;;1.63;0.50;;;20.40;99.90;;;;;;5096095;28;20198;-48
2023/07/01 11:17:17;;;;;;;1.23;0.50;;;20.40;99.90;;;;;;5095921;28;20182;-50
2023/07/01 11:19:46;;;;;;;0.57;0.50;;;20.50;99.90;;;;;;5095550;28;20178;-49
2023/07/01 11:22:16;;;;;;;1.17;0.60;;;20.50;99.90;;;;;;5095420;28;20206;-48
2023/07/01 11:24:42;;;;;;;0.40;0.40;;;20.50;99.90;;;;;;5077359;28;20198;-49
2023/07/01 11:27:08;;;;;;;0.70;0.70;;;20.50;99.90;;;;;;5095748;28;20181;-50
2023/07/01 11:29:35;;;;;;;0.40;0.40;;;20.50;99.90;;;;;;5095318;28;20289;-48
2023/07/01 11:32:15;;;;;;;2.23;0.50;;;20.50;99.90;;;;;;5095643;28;20159;-50
2023/07/01 11:34:49;;;;;;;0.93;0.50;;;20.50;99.90;;;;;;5095602;28;20205;-48
2023/07/01 11:37:25;;;;;;;0.63;0.50;;;20.60;99.90;;;;;;5095569;28;20528;-49
2023/07/01 11:39:51;;;;;;;0.57;0.50;;;20.70;99.90;;;;;;5095179;28;20239;-47
2023/07/01 11:42:17;;;;;;;0.97;0.50;;;20.70;99.90;;;;;;5095913;28;20560;-50
2023/07/01 11:44:43;;;;;;;1.23;0.60;;;20.80;99.90;;;;;;5096046;28;20277;-48
2023/07/01 11:47:13;;;;;;;0.40;0.40;;;20.80;99.90;;;;;;5095319;28;20692;-45
2023/07/01 11:49:39;;;;;;;0.47;0.47;;;20.80;99.90;;;;;;5076875;28;20261;-47
2023/07/01 11:52:06;;;;;;;0.70;0.70;;;20.80;99.90;;;;;;5094937;28;20175;-47
2023/07/01 11:54:45;;;;;;;1.20;0.53;;;20.80;99.90;;;;;;5076767;28;20281;-49
2023/07/01 11:57:16;;;;;;;0.50;0.40;;;20.80;99.90;;;;;;5076573;28;20248;-47
2023/07/01 11:59:46;;;;;;;0.60;0.57;;;20.80;99.90;;;;;;5095222;28;20169;-48
2023/07/01 12:02:12;;;;;;;1.43;0.50;;;20.90;99.90;;;;;;5077364;28;20195;-48
2023/07/01 12:04:38;;;;;;;1.20;0.70;;;21.00;99.90;;;;;;5094643;28;20597;-47
2023/07/01 12:07:11;;;;;;;0.60;0.60;;;21.00;99.90;;;;;;5094715;28;20181;-48
2023/07/01 12:09:42;;;;;;;0.60;0.60;;;21.00;99.90;;;;;;5094844;28;20284;-47
2023/07/01 12:12:14;;;;;;;2.50;0.80;;;21.00;99.90;;;;;;5094957;28;20166;-46
2023/07/01 12:14:40;;;;;;;3.27;0.73;;;21.10;99.90;;;;;;5094734;28;20199;-47
2023/07/01 12:17:05;;;;;;;1.83;0.80;;;21.10;99.90;;;;;;5094857;28;20228;-48
2023/07/01 12:19:31;;;;;;;0.80;0.70;;;21.10;99.90;;;;;;5094496;28;20546;-48
2023/07/01 12:21:59;;;;;;;1.73;0.90;;;21.20;99.90;;;;;;5094415;28;20666;-47
2023/07/01 12:24:26;;;;;;;0.73;0.70;;;21.30;99.90;;;;;;5094521;28;20568;-48
2023/07/01 12:26:57;;;;;;;1.07;0.70;;;21.30;99.90;;;;;;5093777;28;20514;-46
2023/07/01 12:29:24;;;;;;;0.60;0.60;;;21.40;99.90;;;;;;5094988;28;20159;-48
2023/07/01 12:31:50;;;;;;;0.70;0.70;;;21.40;99.90;;;;;;5094272;28;20179;-47
2023/07/01 12:34:16;;;;;;;2.60;0.80;;;21.50;99.90;;;;;;5075906;28;20202;-49
2023/07/01 12:36:46;;;;;;;0.70;0.70;;;21.50;99.90;;;;;;5075936;28;20643;-48
2023/07/01 12:39:14;;;;;;;0.60;0.60;;;21.40;99.90;;;;;;5094060;28;20185;-46
2023/07/01 12:41:40;;;;;;;0.60;0.50;;;21.40;99.90;;;;;;5094310;28;20194;-47
2023/07/01 12:44:08;;;;;;;0.60;0.60;;;21.50;99.90;;;;;;5094489;28;20198;-46
2023/07/01 12:46:35;;;;;;;2.60;0.90;;;21.50;99.90;;;;;;5094244;28;20171;-47
2023/07/01 12:49:03;;;;;;;0.93;0.60;;;21.50;99.90;;;;;;5075917;28;20182;-48
2023/07/01 12:51:32;;;;;;;1.97;0.70;;;21.50;99.90;;;;;;5075716;28;20224;-47